createdAt,value
2018-11-10T00:02:42.806Z,100852.26
2018-11-10T00:07:25.857Z,100846.48
2018-11-10T00:12:08.747Z,100849.38
2018-11-10T00:16:51.919Z,100840.81
2018-11-10T00:21:34.816Z,100838.23
2018-11-10T00:26:17.941Z,100835.59
2018-11-10T00:31:00.847Z,100835.38
2018-11-10T00:35:45.972Z,100836.63
2018-11-10T00:40:28.898Z,100834.46
2018-11-10T00:45:12.074Z,100834.42
2018-11-10T00:49:54.975Z,100828.44
2018-11-10T00:54:38.040Z,100825.63
2018-11-10T00:59:22.196Z,100828.42
2018-11-10T01:04:06.034Z,100835.39
2018-11-10T01:08:48.915Z,100834.36
2018-11-10T01:13:36.965Z,100836.16
2018-11-10T01:18:19.862Z,100837.66
2018-11-10T01:23:02.747Z,100831.25
2018-11-10T01:27:48.963Z,100837.22
2018-11-10T01:32:31.838Z,100825.42
2018-11-10T01:37:15.810Z,100822.81
2018-11-10T01:41:58.691Z,100824.20
2018-11-10T01:46:41.735Z,100824.74
2018-11-10T01:51:24.590Z,100819.97
2018-11-10T01:56:07.520Z,100816.99
2018-11-10T02:00:50.371Z,100811.23
2018-11-10T02:05:33.257Z,100809.48
2018-11-10T02:10:16.144Z,100813.91
2018-11-10T02:15:00.091Z,100809.69
2018-11-10T02:19:42.989Z,100808.70
2018-11-10T02:24:26.229Z,100806.37
2018-11-10T02:29:09.106Z,100813.55
2018-11-10T02:33:53.175Z,100812.58
2018-11-10T02:38:36.081Z,100812.10
2018-11-10T02:43:20.163Z,100809.69
2018-11-10T02:48:03.059Z,100810.09
2018-11-10T02:52:46.301Z,100804.39
2018-11-10T02:57:29.385Z,100803.74
2018-11-10T03:02:12.264Z,100806.97
2018-11-10T03:06:55.401Z,100810.49
2018-11-10T03:11:38.941Z,100813.53
2018-11-10T03:16:21.944Z,100813.47
2018-11-10T03:21:05.186Z,100815.18
2018-11-10T03:25:48.201Z,100812.99
2018-11-10T03:30:31.102Z,100816.94
2018-11-10T03:35:16.053Z,100816.69
2018-11-10T03:39:58.927Z,100818.80
2018-11-10T03:44:43.025Z,100812.84
2018-11-10T03:49:25.900Z,100821.14
2018-11-10T03:54:10.847Z,100819.57
2018-11-10T03:58:53.712Z,100822.73
2018-11-10T04:03:37.638Z,100820.73
2018-11-10T04:08:20.518Z,100816.78
2018-11-10T04:13:03.489Z,100811.73
2018-11-10T04:17:46.386Z,100810.64
2018-11-10T04:22:34.843Z,100807.52
2018-11-10T04:27:17.986Z,100810.62
2018-11-10T04:32:00.833Z,100815.22
2018-11-10T04:36:43.746Z,100817.98
2018-11-10T04:41:26.982Z,100814.52
2018-11-10T04:46:11.068Z,100825.73
2018-11-10T04:50:54.081Z,100821.84
2018-11-10T04:55:37.070Z,100828.81
2018-11-10T05:00:19.942Z,100825.94
2018-11-10T05:05:03.113Z,100827.59
2018-11-10T05:09:45.962Z,100837.05
2018-11-10T05:14:29.090Z,100841.81
2018-11-10T05:19:11.991Z,100839.00
2018-11-10T05:23:55.133Z,100841.73
2018-11-10T05:28:38.009Z,100843.84
2018-11-10T05:33:21.114Z,100845.67
2018-11-10T05:38:04.427Z,100847.69
2018-11-10T05:42:47.312Z,100843.33
2018-11-10T05:47:30.213Z,100855.28
2018-11-10T05:52:13.074Z,100853.59
2018-11-10T05:56:56.057Z,100856.16
2018-11-10T06:01:38.984Z,100858.80
2018-11-10T06:06:23.119Z,100854.27
2018-11-10T06:11:06.085Z,100857.20
2018-11-10T06:15:49.156Z,100859.54
2018-11-10T06:20:32.017Z,100855.54
2018-11-10T06:25:15.170Z,100860.55
2018-11-10T06:29:58.033Z,100859.70
2018-11-10T06:34:41.210Z,100857.48
2018-11-10T06:39:24.182Z,100856.78
2018-11-10T06:44:08.684Z,100852.27
2018-11-10T06:48:51.547Z,100849.94
2018-11-10T06:53:34.465Z,100854.04
2018-11-10T06:58:17.310Z,100854.44
2018-11-10T07:03:01.307Z,100857.97
2018-11-10T07:07:44.178Z,100850.99
2018-11-10T07:12:27.055Z,100854.86
2018-11-10T07:17:10.905Z,100848.13
2018-11-10T07:21:53.766Z,100845.23
2018-11-10T07:26:36.954Z,100851.03
2018-11-10T07:31:19.794Z,100845.64
2018-11-10T07:36:02.763Z,100844.55
2018-11-10T07:40:45.654Z,100846.16
2018-11-10T07:45:28.810Z,100852.16
2018-11-10T07:50:11.870Z,100851.64
2018-11-10T07:54:54.895Z,100839.08
2018-11-10T07:59:37.811Z,100853.96
2018-11-10T08:04:20.876Z,100847.50
2018-11-10T08:09:05.411Z,100844.77
2018-11-10T08:13:48.366Z,100839.20
2018-11-10T08:18:31.348Z,100839.20
2018-11-10T08:23:14.480Z,100839.93
2018-11-10T08:27:57.323Z,100836.73
2018-11-10T08:32:41.921Z,100838.19
2018-11-10T08:37:24.773Z,100835.83
2018-11-10T08:42:07.674Z,100837.48
2018-11-10T08:46:52.670Z,100837.64
2018-11-10T08:51:35.548Z,100834.77
2018-11-10T08:56:19.034Z,100830.44
2018-11-10T09:01:01.903Z,100825.53
2018-11-10T09:05:46.035Z,100827.52
2018-11-10T09:10:28.910Z,100809.91
2018-11-10T09:15:13.510Z,100813.56
2018-11-10T09:19:56.354Z,100802.80
2018-11-10T09:24:39.362Z,100794.06
2018-11-10T09:29:22.283Z,100806.84
2018-11-10T09:34:05.437Z,100787.50
2018-11-10T09:38:48.378Z,100773.98
2018-11-10T09:43:32.154Z,100776.09
2018-11-10T09:48:15.111Z,100774.91
2018-11-10T09:52:58.333Z,100767.27
2018-11-10T09:57:41.409Z,100758.69
2018-11-10T10:02:24.877Z,100759.69
2018-11-10T10:07:07.377Z,100757.94
2018-11-10T10:11:50.276Z,100752.41
2018-11-10T10:16:33.372Z,100741.38
2018-11-10T10:21:16.252Z,100741.21
2018-11-10T10:25:59.376Z,100733.17
2018-11-10T10:30:42.254Z,100738.42
2018-11-10T10:35:25.604Z,100735.70
2018-11-10T10:40:09.942Z,100727.78
2018-11-10T10:44:52.903Z,100728.17
2018-11-10T10:49:35.765Z,100726.33
2018-11-10T10:54:22.245Z,100722.83
2018-11-10T10:59:05.561Z,100721.60
2018-11-10T11:03:50.475Z,100720.19
2018-11-10T11:08:33.322Z,100720.28
2018-11-10T11:13:16.399Z,100707.45
2018-11-10T11:17:59.331Z,100701.55
2018-11-10T11:22:44.436Z,100702.40
2018-11-10T11:27:27.890Z,100699.26
2018-11-10T11:32:11.337Z,100710.36
2018-11-10T11:36:54.201Z,100711.14
2018-11-10T11:41:37.121Z,100706.69
2018-11-10T11:46:20.095Z,100702.84
2018-11-10T11:51:03.063Z,100699.27
2018-11-10T11:55:49.485Z,100693.87
2018-11-10T12:00:32.348Z,100686.72
2018-11-10T12:05:17.187Z,100687.58
2018-11-10T12:10:00.032Z,100685.05
2018-11-10T12:14:48.474Z,100679.02
2018-11-10T12:19:31.341Z,100681.66
2018-11-10T12:24:14.430Z,100684.20
2018-11-10T12:28:57.294Z,100678.21
2018-11-10T12:33:40.210Z,100687.23
2018-11-10T12:38:23.090Z,100679.44
2018-11-10T12:43:07.024Z,100673.86
2018-11-10T12:47:49.917Z,100678.91
2018-11-10T12:52:33.041Z,100678.34
2018-11-10T12:57:15.939Z,100683.79
2018-11-10T13:02:00.948Z,100681.57
2018-11-10T13:06:43.826Z,100678.50
2018-11-10T13:11:26.793Z,100681.96
2018-11-10T13:16:09.754Z,100676.66
2018-11-10T13:20:52.633Z,100682.58
2018-11-10T13:25:36.511Z,100681.88
2018-11-10T13:30:19.418Z,100678.10
2018-11-10T13:35:02.353Z,100677.15
2018-11-10T13:39:45.897Z,100685.33
2018-11-10T13:44:30.877Z,100688.09
2018-11-10T13:49:15.617Z,100687.55
2018-11-10T13:54:00.087Z,100682.86
2018-11-10T13:58:42.953Z,100681.77
2018-11-10T14:03:28.054Z,100684.97
2018-11-10T14:08:11.506Z,100684.48
2018-11-10T14:12:56.498Z,100683.98
2018-11-10T14:17:40.841Z,100688.47
2018-11-10T14:22:25.002Z,100689.36
2018-11-10T14:27:07.959Z,100692.42
2018-11-10T14:31:50.987Z,100697.39
2018-11-10T14:36:33.872Z,100694.95
2018-11-10T14:41:16.755Z,100692.45
2018-11-10T14:46:02.903Z,100711.23
2018-11-10T14:50:46.695Z,100709.97
2018-11-10T14:55:30.246Z,100715.13
2018-11-10T15:00:24.323Z,100717.80
2018-11-10T15:05:07.960Z,100714.62
2018-11-10T15:09:50.850Z,100721.37
2018-11-10T15:14:33.835Z,100724.44
2018-11-10T15:19:16.799Z,100724.92
2018-11-10T15:24:01.995Z,100732.27
2018-11-10T15:28:45.042Z,100734.89
2018-11-10T15:33:30.002Z,100742.98
2018-11-10T15:38:13.038Z,100745.73
2018-11-10T15:42:57.039Z,100739.91
2018-11-10T15:47:40.585Z,100747.30
2018-11-10T15:52:23.548Z,100749.81
2018-11-10T15:57:10.798Z,100749.70
2018-11-10T16:01:54.810Z,100743.69
2018-11-10T16:06:37.727Z,100743.58
2018-11-10T16:11:20.705Z,100751.80
2018-11-10T16:16:03.594Z,100747.23
2018-11-10T16:20:46.593Z,100752.33
2018-11-10T16:25:29.620Z,100754.93
2018-11-10T16:30:15.731Z,100760.27
2018-11-10T16:34:58.733Z,100761.16
2018-11-10T16:39:41.620Z,100763.91
2018-11-10T16:44:24.865Z,100772.79
2018-11-10T16:49:07.958Z,100771.04
2018-11-10T16:53:54.442Z,100774.94
2018-11-10T16:58:37.887Z,100776.20
2018-11-10T17:03:20.870Z,100773.62
2018-11-10T17:08:03.815Z,100765.75
2018-11-10T17:12:46.880Z,100770.36
2018-11-10T17:17:29.779Z,100761.64
2018-11-10T17:22:12.988Z,100773.86
2018-11-10T17:26:55.915Z,100773.16
2018-11-10T17:31:38.983Z,100778.84
2018-11-10T17:36:21.911Z,100778.32
2018-11-10T17:41:05.127Z,100775.98
2018-11-10T17:45:48.049Z,100778.45
2018-11-10T17:50:31.099Z,100781.16
2018-11-10T17:55:16.092Z,100784.19
2018-11-10T17:59:59.006Z,100780.92
2018-11-10T18:04:41.972Z,100781.66
2018-11-10T18:09:24.902Z,100784.80
2018-11-10T18:14:08.928Z,100780.41
2018-11-10T18:18:51.897Z,100786.70
2018-11-10T18:23:35.091Z,100789.67
2018-11-10T18:28:18.022Z,100794.75
2018-11-10T18:33:04.092Z,100803.23
2018-11-10T18:37:47.002Z,100797.09
2018-11-10T18:42:30.578Z,100799.79
2018-11-10T18:47:13.495Z,100808.39
2018-11-10T18:51:56.440Z,100809.20
2018-11-10T18:56:39.446Z,100808.44
2018-11-10T19:01:23.438Z,100810.52
2018-11-10T19:06:06.462Z,100807.83
2018-11-10T19:10:49.408Z,100817.17
2018-11-10T19:15:32.360Z,100817.79
2018-11-10T19:20:16.939Z,100815.42
2018-11-10T19:25:00.947Z,100823.49
2018-11-10T19:29:43.949Z,100826.24
2018-11-10T19:34:26.935Z,100825.38
2018-11-10T19:39:11.923Z,100828.06
2018-11-10T19:43:57.259Z,100829.95
2018-11-10T19:48:40.141Z,100828.52
2018-11-10T19:53:24.000Z,100838.84
2018-11-10T19:58:06.953Z,100839.55
2018-11-10T20:02:50.969Z,100839.73
2018-11-10T20:07:33.950Z,100842.32
2018-11-10T20:12:17.999Z,100849.84
2018-11-10T20:17:00.940Z,100843.17
2018-11-10T20:21:43.859Z,100843.95
2018-11-10T20:26:26.799Z,100847.44
2018-11-10T20:31:46.986Z,100845.25
2018-11-10T20:36:33.310Z,100846.92
2018-11-10T20:41:16.508Z,100847.63
2018-11-10T20:45:59.907Z,100848.96
2018-11-10T20:50:43.050Z,100849.06
2018-11-10T20:55:25.931Z,100851.25
2018-11-10T21:00:11.287Z,100852.61
2018-11-10T21:04:54.235Z,100849.83
2018-11-10T21:09:37.220Z,100847.59
2018-11-10T21:14:21.269Z,100852.86
2018-11-10T21:19:04.310Z,100856.42
2018-11-10T21:23:47.307Z,100846.11
2018-11-10T21:28:30.991Z,100855.88
2018-11-10T21:33:16.149Z,100860.91
2018-11-10T21:37:59.050Z,100863.13
2018-11-10T21:42:42.551Z,100858.27
2018-11-10T21:47:25.447Z,100859.55
2018-11-10T21:52:08.393Z,100859.69
2018-11-10T21:56:51.293Z,100856.91
2018-11-10T22:01:34.479Z,100857.63
2018-11-10T22:06:17.402Z,100862.80
2018-11-10T22:11:00.427Z,100873.54
2018-11-10T22:15:43.350Z,100870.67
2018-11-10T22:20:26.494Z,100863.06
2018-11-10T22:25:10.550Z,100857.19
2018-11-10T22:29:53.468Z,100856.89
2018-11-10T22:34:36.369Z,100859.94
2018-11-10T22:39:20.302Z,100861.63
2018-11-10T22:44:03.207Z,100860.58
2018-11-10T22:48:46.111Z,100861.08
2018-11-10T22:53:29.246Z,100857.67
2018-11-10T22:58:12.164Z,100860.09
2018-11-10T23:02:57.700Z,100861.44
2018-11-10T23:07:40.637Z,100864.89
2018-11-10T23:12:23.590Z,100861.14
2018-11-10T23:17:06.671Z,100859.82
2018-11-10T23:21:49.582Z,100868.80
2018-11-10T23:26:32.514Z,100865.48
2018-11-10T23:31:15.609Z,100868.94
2018-11-10T23:35:58.585Z,100872.31
2018-11-10T23:40:42.428Z,100875.28
2018-11-10T23:45:25.400Z,100883.14
2018-11-10T23:50:10.891Z,100885.09
2018-11-10T23:54:53.902Z,100881.53
2018-11-10T23:59:36.764Z,100873.19
